^^
Datos históricos de la estación: Murcia-Puente Tocinos
Diario Informe para Mayo 12, 2021 Unidades:  Métrico    Ingés   Ambas
Diario Semanal Mensual Anual
  Máxima: Mínima: Promedio:
Temperatura: 27.7 °C 14.2 °C 21.2 °C
Punto de rocio: 9.6 °C 4.5 °C 6.2 °C
Humedad: 56.7% 25% 39%
Velocidad viento: 20.1km/h 2.9km/h 8.6km/h
Racha viento: 35.4km/h - -
Viento- - SSO
Presión: 1019.6 hPa 1012.0 hPa -
Precipitación: 0.0 mm    
 
 
Tabla de datos para Mayo 12, 2021
Hora Temperatura Punto de rocio Presión Viento Velocidad viento Racha viento Humedad Intensidad lluvia(por hora) Nubes
00:04 18.3 °C 5 °C 1019.6 hPa SSE 3.9 km/h 9.7 km/h 41.5% 0.0 mm
00:09 18.3 °C 4.8 °C 1019.6 hPa Sur 5.1 km/h 14.8 km/h 41% 0.0 mm
00:14 18.3 °C 4.8 °C 1019.6 hPa SSO 5.8 km/h 14.8 km/h 41% 0.0 mm
00:19 18.3 °C 4.8 °C 1019.5 hPa SSO 8.3 km/h 15.6 km/h 41% 0.0 mm
00:24 18.3 °C 4.8 °C 1019.5 hPa SSO 9.5 km/h 16.1 km/h 41% 0.0 mm
00:29 18.3 °C 4.8 °C 1019.5 hPa SSO 8.4 km/h 16.7 km/h 41% 0.0 mm
00:34 18.3 °C 4.8 °C 1019.5 hPa SSO 7.6 km/h 16.1 km/h 41% 0.0 mm
00:39 18.3 °C 4.9 °C 1019.5 hPa Sur 9 km/h 14.8 km/h 41.1% 0.0 mm
00:44 18.2 °C 5.1 °C 1019.5 hPa SSO 10 km/h 14.8 km/h 42% 0.0 mm
00:49 18.2 °C 5 °C 1019.5 hPa SSO 9 km/h 14.5 km/h 42% 0.0 mm
00:54 18.1 °C 5 °C 1019.5 hPa SSO 8.4 km/h 13.7 km/h 42% 0.0 mm
00:59 18.2 °C 5 °C 1019.5 hPa SSO 7.8 km/h 14.5 km/h 42% 0.0 mm
01:04 18.2 °C 5.1 °C 1019.5 hPa SSO 7.6 km/h 12.9 km/h 42.3% 0.0 mm
01:09 18.1 °C 5.3 °C 1019.5 hPa SO 6.5 km/h 11.3 km/h 43% 0.0 mm
01:10 18.1 °C 5.3 °C 1019.5 hPa SO 5.5 km/h 9.7 km/h 43% 0.0 mm
01:24 17.9 °C 5.3 °C 1019.4 hPa SE 4.7 km/h 8 km/h 43.6% 0.0 mm
01:29 17.8 °C 5.6 °C 1019.4 hPa SE 4.1 km/h 8 km/h 44.5% 0.0 mm
01:30 17.7 °C 5.6 °C 1019.3 hPa SE 3.7 km/h 8 km/h 45% 0.0 mm
02:19 16.8 °C 5.7 °C 1019.0 hPa SSE 5 km/h 9.3 km/h 48% 0.0 mm
02:24 16.7 °C 5.6 °C 1019.0 hPa SSE 5 km/h 9.7 km/h 48% 0.0 mm
02:29 16.7 °C 5.8 °C 1019.0 hPa SE 5.5 km/h 9.7 km/h 48.5% 0.0 mm
02:34 16.7 °C 5.8 °C 1018.9 hPa SSE 5.8 km/h 9.3 km/h 48.5% 0.0 mm
02:39 16.6 °C 5.8 °C 1018.9 hPa Sur 5.8 km/h 9.7 km/h 49% 0.0 mm
02:44 16.6 °C 5.8 °C 1018.9 hPa SSE 5.8 km/h 9.7 km/h 49% 0.0 mm
02:49 16.6 °C 5.8 °C 1018.7 hPa SSE 5.1 km/h 11.9 km/h 49% 0.0 mm
02:54 16.5 °C 5.9 °C 1018.7 hPa Sur 4.6 km/h 11.3 km/h 49.4% 0.0 mm
02:59 16.4 °C 5.9 °C 1018.7 hPa SSO 5.8 km/h 11.3 km/h 50% 0.0 mm
03:04 16.4 °C 5.9 °C 1018.5 hPa SSO 6.5 km/h 9.7 km/h 50% 0.0 mm
03:09 16.4 °C 5.9 °C 1018.5 hPa Sur 5.4 km/h 8 km/h 50% 0.0 mm
03:14 16.4 °C 5.9 °C 1018.6 hPa SO 4.7 km/h 8 km/h 50% 0.0 mm
03:19 16.4 °C 6 °C 1018.6 hPa SO 3.8 km/h 7.4 km/h 50% 0.0 mm
03:24 16.5 °C 5.9 °C 1018.6 hPa SO 3.2 km/h 8 km/h 49.6% 0.0 mm
03:29 16.5 °C 5.9 °C 1018.6 hPa SO 3.6 km/h 8 km/h 49.7% 0.0 mm
03:34 16.4 °C 5.7 °C 1018.4 hPa SSO 3.9 km/h 7.6 km/h 49.1% 0.0 mm
03:39 16.4 °C 5.7 °C 1018.4 hPa SO 3.9 km/h 9.3 km/h 49% 0.0 mm
03:44 16.4 °C 5.6 °C 1018.4 hPa SO 3.9 km/h 9.7 km/h 48.8% 0.0 mm
03:49 16.4 °C 5.7 °C 1018.3 hPa SO 3.9 km/h 8 km/h 49% 0.0 mm
03:54 16.4 °C 5.7 °C 1018.3 hPa SO 3.9 km/h 8 km/h 49.1% 0.0 mm
03:59 16.3 °C 5.8 °C 1018.3 hPa SO 3.9 km/h 8 km/h 50% 0.0 mm
04:04 16.2 °C 5.9 °C 1018.1 hPa SO 3.9 km/h 8 km/h 50.6% 0.0 mm
04:09 16.1 °C 5.9 °C 1018.1 hPa SO 3.2 km/h 5.6 km/h 51.1% 0.0 mm
04:14 15.9 °C 6.1 °C 1018.2 hPa SSO 2.9 km/h 7.4 km/h 52% 0.0 mm
04:19 15.8 °C 6 °C 1018.2 hPa Sur 3.5 km/h 8.4 km/h 52.1% 0.0 mm
04:24 15.7 °C 6.2 °C 1018.2 hPa SSE 3.9 km/h 11.9 km/h 53.3% 0.0 mm
04:29 15.5 °C 6.3 °C 1018.2 hPa Sur 5.6 km/h 11.9 km/h 54% 0.0 mm
04:34 15.4 °C 6.1 °C 1018.1 hPa Sur 6.9 km/h 11.3 km/h 54% 0.0 mm
04:39 15.3 °C 6.1 °C 1018.1 hPa Sur 7.3 km/h 11.3 km/h 54% 0.0 mm
04:44 15.2 °C 6.2 °C 1018.1 hPa Sur 7.6 km/h 11.3 km/h 54.8% 0.0 mm
04:49 15.2 °C 6.2 °C 1018.0 hPa Sur 7.2 km/h 10 km/h 55% 0.0 mm
04:54 15.2 °C 6.2 °C 1018.0 hPa Sur 6.9 km/h 11.1 km/h 55% 0.0 mm
04:59 15.2 °C 6.1 °C 1018.0 hPa Sur 7.3 km/h 13 km/h 54.5% 0.0 mm
05:04 15.2 °C 6 °C 1017.9 hPa Sur 7.6 km/h 13 km/h 54% 0.0 mm
05:09 15.2 °C 6 °C 1017.9 hPa Sur 8 km/h 13 km/h 54% 0.0 mm
05:14 15.1 °C 5.8 °C 1017.9 hPa Sur 8.4 km/h 13 km/h 54% 0.0 mm
05:19 15 °C 5.8 °C 1017.7 hPa Sur 8.4 km/h 12.9 km/h 54% 0.0 mm
05:24 14.9 °C 5.7 °C 1017.7 hPa SSO 8.4 km/h 10.3 km/h 54% 0.0 mm
05:29 15 °C 5.7 °C 1017.7 hPa SSO 6.9 km/h 11.3 km/h 54% 0.0 mm
05:34 14.9 °C 5.7 °C 1017.6 hPa SSO 5.8 km/h 10 km/h 53.8% 0.0 mm
05:39 14.9 °C 5.6 °C 1017.6 hPa SO 6.2 km/h 10 km/h 53.8% 0.0 mm
05:44 14.9 °C 5.6 °C 1017.6 hPa SSO 6.5 km/h 9.7 km/h 53.6% 0.0 mm
05:49 14.9 °C 5.4 °C 1017.4 hPa SSO 6.1 km/h 9.7 km/h 53.1% 0.0 mm
05:54 14.9 °C 5.4 °C 1017.4 hPa SSO 5.8 km/h 9.7 km/h 53% 0.0 mm
05:59 15 °C 5.5 °C 1017.4 hPa SSO 5.8 km/h 11.1 km/h 53% 0.0 mm
06:04 15 °C 5.5 °C 1017.3 hPa Sur 5.8 km/h 11.3 km/h 53% 0.0 mm
06:09 15 °C 5.5 °C 1017.3 hPa SSE 5.3 km/h 8.4 km/h 53% 0.0 mm
06:14 14.9 °C 5.4 °C 1017.3 hPa Sur 5 km/h 11.1 km/h 53.2% 0.0 mm
06:19 14.8 °C 5.6 °C 1017.3 hPa Sur 5.8 km/h 11.3 km/h 54% 0.0 mm
06:24 14.7 °C 5.5 °C 1017.3 hPa Sur 6.5 km/h 11.3 km/h 54% 0.0 mm
06:29 14.7 °C 5.5 °C 1017.3 hPa SSO 6.5 km/h 9.7 km/h 53.9% 0.0 mm
06:34 14.7 °C 5.2 °C 1017.0 hPa SO 6.5 km/h 9.7 km/h 53% 0.0 mm
06:39 14.7 °C 5.2 °C 1017.0 hPa SO 4.8 km/h 6.4 km/h 53% 0.0 mm
06:44 14.8 °C 5.5 °C 1017.3 hPa Oeste 3.9 km/h 7.6 km/h 53.9% 0.0 mm
06:49 14.7 °C 5.5 °C 1017.3 hPa SO 3.9 km/h 8 km/h 54% 0.0 mm
06:54 14.6 °C 5.4 °C 1017.3 hPa SSO 3.9 km/h 8 km/h 53.9% 0.0 mm
06:59 14.6 °C 5.3 °C 1017.3 hPa Sur 3.9 km/h 8 km/h 53.6% 0.0 mm
07:04 14.7 °C 5.9 °C 1017.1 hPa SE 3.9 km/h 8 km/h 55.6% 0.0 mm
07:09 14.7 °C 6.1 °C 1017.1 hPa ESE 3.9 km/h 8.7 km/h 56.3% 0.0 mm
07:14 14.4 °C 6 °C 1017.4 hPa SSE 3.9 km/h 9.7 km/h 56.7% 0.0 mm
07:19 14.2 °C 5.6 °C 1017.4 hPa Sur 4.5 km/h 11.1 km/h 56% 0.0 mm
07:24 14.2 °C 5.4 °C 1017.4 hPa SSO 5 km/h 11.3 km/h 55.3% 0.0 mm
07:29 14.3 °C 5.3 °C 1017.6 hPa SSO 4.3 km/h 10 km/h 54.7% 0.0 mm
07:34 14.5 °C 5 °C 1017.6 hPa SSE 3.9 km/h 10 km/h 53% 0.0 mm
07:39 14.6 °C 5.1 °C 1017.6 hPa SSE 5.8 km/h 11.1 km/h 53% 0.0 mm
07:44 14.6 °C 5.1 °C 1017.7 hPa Sur 6.9 km/h 11.3 km/h 53.1% 0.0 mm
07:49 14.7 °C 5.2 °C 1017.7 hPa Sur 6.7 km/h 11.1 km/h 53% 0.0 mm
07:54 14.7 °C 5.2 °C 1017.7 hPa Sur 6.5 km/h 13 km/h 53% 0.0 mm
07:59 14.8 °C 5.1 °C 1017.8 hPa SSO 7.7 km/h 13 km/h 52.5% 0.0 mm
08:04 14.7 °C 5.1 °C 1017.8 hPa SSO 8.4 km/h 13 km/h 52.4% 0.0 mm
08:09 14.8 °C 5.1 °C 1017.8 hPa SSO 8.6 km/h 16.7 km/h 52.2% 0.0 mm
08:14 15 °C 5.2 °C 1017.9 hPa SSO 8.7 km/h 16.1 km/h 52% 0.0 mm
08:19 15.1 °C 5.3 °C 1017.9 hPa SSO 8.5 km/h 13 km/h 51.8% 0.0 mm
08:24 15.2 °C 5.1 °C 1017.9 hPa SSO 8.4 km/h 12.9 km/h 51% 0.0 mm
08:29 15.3 °C 5.2 °C 1017.9 hPa SSO 7.9 km/h 13 km/h 51% 0.0 mm
08:34 15.4 °C 5.3 °C 1017.9 hPa SSO 7.6 km/h 14.8 km/h 51% 0.0 mm
08:39 15.5 °C 5.4 °C 1017.9 hPa Sur 8.1 km/h 14.8 km/h 51% 0.0 mm
08:44 15.6 °C 5.3 °C 1017.9 hPa Sur 8.4 km/h 14.5 km/h 50.4% 0.0 mm
08:49 15.7 °C 5.3 °C 1017.9 hPa Sur 8.6 km/h 13 km/h 50% 0.0 mm
08:54 15.8 °C 5.3 °C 1017.9 hPa SSO 8.7 km/h 11.1 km/h 50% 0.0 mm
08:59 15.9 °C 5.5 °C 1017.9 hPa Sur 7.9 km/h 11.3 km/h 50% 0.0 mm
09:04 16.1 °C 5.4 °C 1017.9 hPa Sur 7.6 km/h 11.3 km/h 49.1% 0.0 mm
09:09 16.3 °C 5.5 °C 1017.9 hPa SSO 7.6 km/h 13 km/h 49% 0.0 mm
09:14 16.5 °C 5.7 °C 1017.9 hPa Sur 7.6 km/h 12.9 km/h 49% 0.0 mm
09:19 16.8 °C 6 °C 1017.8 hPa Sur 6.9 km/h 11.3 km/h 49% 0.0 mm
09:24 17.1 °C 5.8 °C 1017.8 hPa SSO 6.5 km/h 11.9 km/h 47.5% 0.0 mm
09:29 17.2 °C 5.5 °C 1017.8 hPa OSO 6.8 km/h 13 km/h 46.3% 0.0 mm
09:34 17.3 °C 5.5 °C 1017.8 hPa SSO 6.9 km/h 12.9 km/h 45.8% 0.0 mm
09:39 17.4 °C 5.4 °C 1017.8 hPa SO 6.9 km/h 13.7 km/h 45% 0.0 mm
09:44 17.5 °C 5.4 °C 1017.8 hPa SO 6.9 km/h 14.5 km/h 44.8% 0.0 mm
09:49 17.7 °C 5.3 °C 1017.8 hPa SO 6.6 km/h 12.9 km/h 44% 0.0 mm
09:54 17.8 °C 5.4 °C 1017.8 hPa Oeste 6.5 km/h 13 km/h 44% 0.0 mm
09:59 17.9 °C 5.4 °C 1017.8 hPa OSO 6.8 km/h 14.8 km/h 44% 0.0 mm
10:04 18.1 °C 5.6 °C 1017.7 hPa OSO 6.9 km/h 14.8 km/h 43.8% 0.0 mm
10:09 18.3 °C 5.5 °C 1017.7 hPa SO 6.9 km/h 14.8 km/h 43.1% 0.0 mm
10:14 18.4 °C 5.4 °C 1017.7 hPa SO 6.9 km/h 11.3 km/h 42.4% 0.0 mm
10:19 18.6 °C 5.4 °C 1017.7 hPa Oeste 6.3 km/h 11.3 km/h 42% 0.0 mm
10:24 18.9 °C 5.6 °C 1017.7 hPa OSO 5.8 km/h 10 km/h 41.6% 0.0 mm
10:29 19.2 °C 5.6 °C 1017.7 hPa SO 5.8 km/h 9.7 km/h 40.9% 0.0 mm
10:34 19.5 °C 5.6 °C 1017.4 hPa SE 5.8 km/h 9.7 km/h 40.2% 0.0 mm
10:39 20 °C 5.8 °C 1017.4 hPa ESE 4.5 km/h 11.1 km/h 39.5% 0.0 mm
10:44 20.2 °C 5.8 °C 1017.4 hPa SSE 3.9 km/h 11.3 km/h 39% 0.0 mm
10:49 20.3 °C 5.6 °C 1017.4 hPa Oeste 4.5 km/h 9.3 km/h 38.2% 0.0 mm
10:54 20.6 °C 5.7 °C 1017.4 hPa Sur 5 km/h 9.7 km/h 37.9% 0.0 mm
10:59 20.9 °C 5.7 °C 1017.4 hPa ESE 3.8 km/h 9.3 km/h 37% 0.0 mm
11:04 21.2 °C 5.6 °C 1017.1 hPa Este 3.2 km/h 9.7 km/h 36.2% 0.0 mm
11:09 21.4 °C 5.6 °C 1017.1 hPa NE 4.1 km/h 9.7 km/h 35.7% 0.0 mm
11:14 21.6 °C 5.3 °C 1017.1 hPa OSO 4.6 km/h 11.1 km/h 34.6% 0.0 mm
11:19 21.4 °C 4.9 °C 1016.8 hPa OSO 4.8 km/h 11.3 km/h 34% 0.0 mm
11:24 21.5 °C 4.9 °C 1016.8 hPa OSO 5 km/h 13 km/h 34% 0.0 mm
11:29 21.5 °C 4.9 °C 1016.8 hPa OSO 5.9 km/h 12.9 km/h 34% 0.0 mm
11:34 21.6 °C 5 °C 1016.8 hPa OSO 6.5 km/h 15.6 km/h 34% 0.0 mm
11:39 21.6 °C 5 °C 1016.8 hPa SO 7.1 km/h 16.1 km/h 34% 0.0 mm
11:44 21.7 °C 5.1 °C 1016.8 hPa SSO 7.6 km/h 14.8 km/h 34% 0.0 mm
11:49 21.8 °C 5.2 °C 1016.7 hPa SO 6.4 km/h 14.5 km/h 33.8% 0.0 mm
11:54 22.2 °C 5.1 °C 1016.7 hPa OSO 5.8 km/h 11.9 km/h 33.1% 0.0 mm
11:59 22.3 °C 5.3 °C 1016.7 hPa ONO 6.5 km/h 11.9 km/h 33% 0.0 mm
12:04 22.5 °C 5.4 °C 1016.5 hPa Oeste 6.9 km/h 15.6 km/h 32.9% 0.0 mm
12:09 22.7 °C 5.3 °C 1016.5 hPa SSO 6.7 km/h 16.1 km/h 32.2% 0.0 mm
12:14 22.8 °C 5.3 °C 1016.5 hPa Oeste 6.5 km/h 12.9 km/h 32.1% 0.0 mm
12:19 22.9 °C 5.3 °C 1016.4 hPa OSO 6.1 km/h 14.8 km/h 32% 0.0 mm
12:24 23 °C 5.4 °C 1016.4 hPa OSO 5.8 km/h 14.8 km/h 32% 0.0 mm
12:29 23.2 °C 5.5 °C 1016.4 hPa Sur 6.8 km/h 14.5 km/h 31.9% 0.0 mm
12:34 23.4 °C 5.3 °C 1016.1 hPa SO 7.6 km/h 14.5 km/h 31% 0.0 mm
12:39 23.4 °C 5.3 °C 1016.1 hPa SO 8.1 km/h 22.5 km/h 31% 0.0 mm
12:44 23.3 °C 5.2 °C 1016.1 hPa Oeste 8.4 km/h 22.5 km/h 31% 0.0 mm
12:49 23.5 °C 5.3 °C 1016.1 hPa ONO 6.9 km/h 11.9 km/h 31% 0.0 mm
12:54 23.7 °C 5.6 °C 1016.1 hPa NNO 5.8 km/h 13.7 km/h 31% 0.0 mm
12:59 24.1 °C 5.4 °C 1016.1 hPa SSO 6.6 km/h 19 km/h 29.8% 0.0 mm
13:04 24.2 °C 5.3 °C 1015.8 hPa SSE 6.9 km/h 19.3 km/h 29.6% 0.0 mm
13:09 24.4 °C 5.2 °C 1015.8 hPa SO 7.9 km/h 19.3 km/h 29.1% 0.0 mm
13:14 24.3 °C 4.7 °C 1015.8 hPa ONO 8.4 km/h 14.5 km/h 28.1% 0.0 mm
13:19 24.4 °C 4.7 °C 1015.6 hPa NO 6.8 km/h 11.1 km/h 28% 0.0 mm
13:24 24.7 °C 4.7 °C 1015.6 hPa SSE 5.8 km/h 11.3 km/h 27.6% 0.0 mm
13:29 24.8 °C 4.8 °C 1015.6 hPa NNE 5.3 km/h 16.7 km/h 27.5% 0.0 mm
13:34 24.8 °C 4.7 °C 1015.4 hPa NNE 5 km/h 16.1 km/h 27.3% 0.0 mm
13:39 25 °C 4.9 °C 1015.4 hPa North 5.5 km/h 12.9 km/h 27.5% 0.0 mm
13:44 25.3 °C 5 °C 1015.4 hPa Oeste 5.8 km/h 13 km/h 27% 0.0 mm
13:49 25.7 °C 5 °C 1015.2 hPa OSO 5.3 km/h 14 km/h 26.5% 0.0 mm
13:54 25.6 °C 4.6 °C 1015.2 hPa OSO 5 km/h 14.8 km/h 26% 0.0 mm
13:59 25.5 °C 4.7 °C 1015.2 hPa Oeste 6.8 km/h 16.7 km/h 26.2% 0.0 mm
14:04 25.5 °C 4.6 °C 1014.9 hPa ONO 7.6 km/h 20.9 km/h 26% 0.0 mm
14:09 25.3 °C 4.8 °C 1014.9 hPa NNO 9.7 km/h 20.9 km/h 26.8% 0.0 mm
14:14 25.3 °C 4.9 °C 1014.9 hPa NNE 11.1 km/h 19 km/h 27% 0.0 mm
14:19 25.3 °C 4.5 °C 1014.6 hPa NNO 9 km/h 19.3 km/h 26.2% 0.0 mm
14:24 25.3 °C 4.9 °C 1014.6 hPa NNE 7.6 km/h 19.3 km/h 26.9% 0.0 mm
14:29 25.5 °C 5.1 °C 1014.6 hPa ONO 6.8 km/h 13 km/h 26.9% 0.0 mm
14:34 25.7 °C 4.9 °C 1014.3 hPa NNO 6.5 km/h 13 km/h 26.3% 0.0 mm
14:39 25.8 °C 4.8 °C 1014.3 hPa ONO 7.1 km/h 13 km/h 26% 0.0 mm
14:44 25.8 °C 4.9 °C 1014.3 hPa SSO 7.6 km/h 11.9 km/h 26% 0.0 mm
14:49 25.9 °C 4.9 °C 1014.1 hPa NE 5.9 km/h 14 km/h 26% 0.0 mm
14:54 26 °C 5 °C 1014.1 hPa SE 5 km/h 14.8 km/h 26% 0.0 mm
14:59 26.2 °C 5.3 °C 1014.1 hPa Este 6 km/h 12.9 km/h 26.1% 0.0 mm
15:04 26.4 °C 5.5 °C 1013.9 hPa NE 6.5 km/h 11.3 km/h 26.2% 0.0 mm
15:09 26.8 °C 5.4 °C 1013.9 hPa Este 6 km/h 14.8 km/h 25.5% 0.0 mm
15:14 26.8 °C 5.2 °C 1013.9 hPa ESE 5.8 km/h 16.7 km/h 25.3% 0.0 mm
15:19 26.7 °C 5.3 °C 1013.6 hPa SSE 7.9 km/h 16.7 km/h 25.4% 0.0 mm
15:24 26.6 °C 5.4 °C 1013.6 hPa Sur 9.5 km/h 16.1 km/h 25.8% 0.0 mm
15:29 26.7 °C 5.6 °C 1013.6 hPa SE 8.3 km/h 12.9 km/h 26% 0.0 mm
15:34 26.8 °C 5.4 °C 1013.5 hPa Sur 7.6 km/h 11.3 km/h 25.6% 0.0 mm
15:39 27.1 °C 5.3 °C 1013.5 hPa Sur 6.1 km/h 11.1 km/h 25% 0.0 mm
15:44 27.3 °C 5.7 °C 1013.5 hPa SSE 5 km/h 13.7 km/h 25.3% 0.0 mm
15:49 27.4 °C 7.1 °C 1013.1 hPa ESE 6.2 km/h 27 km/h 27.7% 0.0 mm
15:54 27.2 °C 7.6 °C 1013.1 hPa ESE 6.9 km/h 33.3 km/h 28.8% 0.0 mm
15:59 26.9 °C 7.8 °C 1013.1 hPa ESE 14.6 km/h 33.8 km/h 29.8% 0.0 mm
16:04 26.8 °C 8.8 °C 1012.8 hPa ESE 18 km/h 31.7 km/h 32.2% 0.0 mm
16:09 26.7 °C 9.1 °C 1012.8 hPa ESE 18.3 km/h 33.3 km/h 33% 0.0 mm
16:14 26.8 °C 9.1 °C 1012.8 hPa ESE 18.3 km/h 33.3 km/h 32.9% 0.0 mm
16:19 26.7 °C 9.1 °C 1012.7 hPa SE 18.4 km/h 33.8 km/h 33% 0.0 mm
16:24 26.6 °C 9.2 °C 1012.7 hPa SE 18.4 km/h 29.6 km/h 33.5% 0.0 mm
16:29 26.4 °C 9.3 °C 1012.7 hPa ESE 18.2 km/h 29 km/h 34.1% 0.0 mm
16:34 26.4 °C 9.3 °C 1012.7 hPa ESE 18 km/h 34.3 km/h 34.1% 0.0 mm
16:39 26.4 °C 9.3 °C 1012.7 hPa ESE 18.6 km/h 34.3 km/h 34% 0.0 mm
16:44 26.4 °C 9.6 °C 1012.7 hPa SE 19 km/h 33.8 km/h 34.7% 0.0 mm
16:49 26.4 °C 9.3 °C 1012.5 hPa SE 18.6 km/h 33.8 km/h 34.1% 0.0 mm
16:54 26.4 °C 9.3 °C 1012.5 hPa SE 18.4 km/h 33.8 km/h 34% 0.0 mm
16:59 26.8 °C 9.2 °C 1012.5 hPa ESE 17.7 km/h 25.9 km/h 33% 0.0 mm
17:04 26.9 °C 9.2 °C 1012.5 hPa SE 17.2 km/h 25.7 km/h 32.9% 0.0 mm
17:09 27.1 °C 9.3 °C 1012.5 hPa SE 16.3 km/h 27.8 km/h 32.8% 0.0 mm
17:14 27.2 °C 9.3 °C 1012.5 hPa SE 15.6 km/h 27.4 km/h 32.5% 0.0 mm
17:19 27.3 °C 9.2 °C 1012.4 hPa SSE 15.6 km/h 25.7 km/h 32% 0.0 mm
17:24 27.3 °C 9.1 °C 1012.4 hPa SSE 15.6 km/h 24.5 km/h 32% 0.0 mm
17:29 27.1 °C 9 °C 1012.4 hPa SE 15.6 km/h 24.1 km/h 32% 0.0 mm
17:34 27.2 °C 9.1 °C 1012.3 hPa ESE 15.6 km/h 29.8 km/h 32.1% 0.0 mm
17:39 27 °C 9.2 °C 1012.3 hPa SE 15.9 km/h 30.6 km/h 32.6% 0.0 mm
17:44 27 °C 9 °C 1012.3 hPa ESE 16.1 km/h 29.6 km/h 32.1% 0.0 mm
17:49 27.1 °C 9.1 °C 1012.1 hPa ESE 14.7 km/h 29.6 km/h 32.3% 0.0 mm
17:54 27 °C 9 °C 1012.1 hPa Este 13.7 km/h 34.3 km/h 32.2% 0.0 mm
17:59 26.9 °C 9.1 °C 1012.1 hPa ESE 17.7 km/h 33.8 km/h 32.8% 0.0 mm
18:04 26.9 °C 8.8 °C 1012.0 hPa ESE 20.1 km/h 33.8 km/h 32% 0.0 mm
18:09 26.7 °C 9.1 °C 1012.0 hPa ESE 19.9 km/h 33.8 km/h 33% 0.0 mm
18:14 26.8 °C 9.1 °C 1012.0 hPa ESE 19.8 km/h 31.5 km/h 33% 0.0 mm
18:19 26.8 °C 9.1 °C 1012.0 hPa ESE 18.3 km/h 32.2 km/h 33% 0.0 mm
18:24 26.8 °C 9.1 °C 1012.0 hPa ESE 17.2 km/h 29.8 km/h 33% 0.0 mm
18:29 26.8 °C 8.9 °C 1012.2 hPa ESE 17.9 km/h 30.6 km/h 32.4% 0.0 mm
18:34 27 °C 8.9 °C 1012.2 hPa SE 18.4 km/h 29 km/h 32% 0.0 mm
18:39 27.1 °C 9 °C 1012.2 hPa SE 16.9 km/h 23.3 km/h 32% 0.0 mm
18:44 27.1 °C 9 °C 1012.2 hPa SE 16.1 km/h 26.2 km/h 32% 0.0 mm
18:49 27.2 °C 8.7 °C 1012.2 hPa ESE 16.8 km/h 25.7 km/h 31.2% 0.0 mm
18:54 27.3 °C 9.1 °C 1012.2 hPa SE 17.2 km/h 22.5 km/h 32% 0.0 mm
18:59 27.3 °C 9.2 °C 1012.2 hPa ESE 13.9 km/h 21.7 km/h 32% 0.0 mm
19:04 27.2 °C 9.1 °C 1012.1 hPa ESE 11.9 km/h 24.5 km/h 32% 0.0 mm
19:09 27.1 °C 9 °C 1012.1 hPa ESE 13 km/h 24.1 km/h 32% 0.0 mm
19:14 26.9 °C 8.9 °C 1012.2 hPa ESE 13.7 km/h 22.5 km/h 32.2% 0.0 mm
19:19 26.9 °C 9.2 °C 1012.2 hPa SE 13.3 km/h 22.5 km/h 32.9% 0.0 mm
19:24 26.9 °C 8.9 °C 1012.2 hPa SE 13 km/h 19.3 km/h 32.1% 0.0 mm
19:29 26.9 °C 8.9 °C 1012.4 hPa SE 10.3 km/h 19.3 km/h 32% 0.0 mm
19:34 27.1 °C 9 °C 1012.4 hPa ESE 8.7 km/h 12.9 km/h 32% 0.0 mm
19:39 27 °C 8.9 °C 1012.4 hPa ENE 7.4 km/h 11.9 km/h 32% 0.0 mm
19:44 26.9 °C 8.9 °C 1012.5 hPa NE 6.5 km/h 11.3 km/h 32.1% 0.0 mm
19:49 26.9 °C 9 °C 1012.5 hPa North 6.5 km/h 11.1 km/h 32.4% 0.0 mm
19:54 27 °C 8 °C 1012.5 hPa ONO 6.5 km/h 28.2 km/h 30.2% 0.0 mm
19:59 27.3 °C 6.8 °C 1012.6 hPa OSO 7.8 km/h 27.8 km/h 27.3% 0.0 mm
20:04 27.7 °C 6.8 °C 1012.6 hPa ONO 8.7 km/h 25.7 km/h 26.7% 0.0 mm
20:09 27.5 °C 6.3 °C 1012.6 hPa ONO 11 km/h 33.3 km/h 26% 0.0 mm
20:14 27.3 °C 6.1 °C 1012.7 hPa ONO 12.2 km/h 33.8 km/h 26% 0.0 mm
20:19 27.2 °C 6.4 °C 1012.7 hPa ONO 16.3 km/h 30.6 km/h 26.7% 0.0 mm
20:24 27.1 °C 6.5 °C 1012.7 hPa ONO 18.4 km/h 35.2 km/h 27% 0.0 mm
20:29 27 °C 6.4 °C 1012.8 hPa ONO 18.4 km/h 35.4 km/h 27% 0.0 mm
20:34 26.9 °C 6.3 °C 1012.8 hPa ONO 18.4 km/h 29.8 km/h 27% 0.0 mm
20:39 26.8 °C 6.6 °C 1012.8 hPa ONO 16.7 km/h 30.6 km/h 27.6% 0.0 mm
20:44 26.7 °C 6.7 °C 1013.0 hPa ONO 15.6 km/h 25.9 km/h 28% 0.0 mm
20:49 26.7 °C 6.7 °C 1013.0 hPa Oeste 14.1 km/h 25.7 km/h 28% 0.0 mm
20:54 26.6 °C 6.6 °C 1013.0 hPa Oeste 13 km/h 28.2 km/h 28% 0.0 mm
20:59 26.4 °C 6.5 °C 1013.1 hPa Oeste 13.5 km/h 27.4 km/h 28.1% 0.0 mm
21:04 26.3 °C 6.8 °C 1013.1 hPa Oeste 13.7 km/h 25.9 km/h 29% 0.0 mm
21:09 26.2 °C 6.8 °C 1013.1 hPa Oeste 14.3 km/h 25.7 km/h 29% 0.0 mm
21:10 26.1 °C 6.7 °C 1013.1 hPa Oeste 14.6 km/h 22.5 km/h 29% 0.0 mm
21:34 25.2 °C 6.9 °C 1013.7 hPa ONO 14 km/h 22.5 km/h 31% 0.0 mm
21:39 25 °C 6.7 °C 1013.7 hPa ONO 11.7 km/h 19.3 km/h 31% 0.0 mm
21:44 24.8 °C 6.5 °C 1014.0 hPa NO 10 km/h 22.5 km/h 31% 0.0 mm
21:49 24.7 °C 6.4 °C 1014.0 hPa NO 10 km/h 22.5 km/h 31% 0.0 mm
21:54 24.6 °C 6.3 °C 1014.0 hPa NO 10 km/h 13.7 km/h 31% 0.0 mm
21:59 24.5 °C 6.5 °C 1014.3 hPa NO 7.8 km/h 14.5 km/h 31.4% 0.0 mm
22:04 24.4 °C 6.4 °C 1014.3 hPa Oeste 6.5 km/h 14.8 km/h 31.5% 0.0 mm
22:09 24.3 °C 6 °C 1014.3 hPa Oeste 6.5 km/h 18.5 km/h 31% 0.0 mm
22:14 24.2 °C 6 °C 1014.6 hPa ONO 6.5 km/h 19.3 km/h 31% 0.0 mm
22:19 24 °C 5.8 °C 1014.6 hPa ONO 7.8 km/h 19.3 km/h 31% 0.0 mm
22:24 23.8 °C 5.6 °C 1014.6 hPa ONO 8.7 km/h 19.3 km/h 31% 0.0 mm
22:29 23.7 °C 5.5 °C 1014.7 hPa ONO 9.7 km/h 19.3 km/h 31% 0.0 mm
22:34 23.6 °C 5.5 °C 1014.7 hPa ONO 10.3 km/h 19.3 km/h 31% 0.0 mm
22:35 23.5 °C 5.4 °C 1014.7 hPa ONO 11.3 km/h 16.1 km/h 31% 0.0 mm
Murcia-Puente Tocinos, España
Compliments of Weather Underground - 2.75 mb

La estación de MeteoMurcia.com, publica sus datos en los siguientes proyectos:

Weather Underground PWS IMURCIAP2 Meteoclimatic www.awekas.at

W3Counter
Web Analytics